createdAt,value
2023-03-05T00:00:35.149Z,73.05
2023-03-05T00:03:01.535Z,74.11
2023-03-05T00:05:27.887Z,74.42
2023-03-05T00:07:55.803Z,74.52
2023-03-05T00:10:22.311Z,74.28
2023-03-05T00:12:50.706Z,74.16
2023-03-05T00:15:17.149Z,73.70
2023-03-05T00:17:44.420Z,73.17
2023-03-05T00:20:11.818Z,73.50
2023-03-05T00:22:38.414Z,73.19
2023-03-05T00:25:07.427Z,73.12
2023-03-05T00:27:33.782Z,73.20
2023-03-05T00:30:00.347Z,73.08
2023-03-05T00:32:26.975Z,72.88
2023-03-05T00:34:55.777Z,72.68
2023-03-05T00:37:22.386Z,72.40
2023-03-05T00:39:49.064Z,72.88
2023-03-05T00:42:17.455Z,72.77
2023-03-05T00:44:43.849Z,73.45
2023-03-05T00:47:10.193Z,73.74
2023-03-05T00:49:36.687Z,73.72
2023-03-05T00:52:03.083Z,73.61
2023-03-05T00:54:29.442Z,73.40
2023-03-05T00:56:56.103Z,73.44
2023-03-05T00:59:22.579Z,73.56
2023-03-05T01:01:50.731Z,73.55
2023-03-05T01:04:17.284Z,73.58
2023-03-05T01:06:43.692Z,73.48
2023-03-05T01:09:10.238Z,74.10
2023-03-05T01:11:36.787Z,74.82
2023-03-05T01:14:03.149Z,74.85
2023-03-05T01:16:29.895Z,75.14
2023-03-05T01:18:56.312Z,74.83
2023-03-05T01:21:23.719Z,74.82
2023-03-05T01:23:50.273Z,74.82
2023-03-05T01:26:16.779Z,74.42
2023-03-05T01:28:43.697Z,73.62
2023-03-05T01:31:12.163Z,73.19
2023-03-05T01:33:38.679Z,74.03
2023-03-05T01:36:05.060Z,74.00
2023-03-05T01:38:31.606Z,74.48
2023-03-05T01:40:58.097Z,74.69
2023-03-05T01:43:24.441Z,74.80
2023-03-05T01:45:51.069Z,75.21
2023-03-05T01:48:17.564Z,74.54
2023-03-05T01:50:44.009Z,74.68
2023-03-05T01:53:10.653Z,74.51
2023-03-05T01:55:41.368Z,74.60
2023-03-05T01:58:07.762Z,74.88
2023-03-05T02:00:34.188Z,74.99
2023-03-05T02:03:00.551Z,75.09
2023-03-05T02:05:26.994Z,75.09
2023-03-05T02:07:53.412Z,74.89
2023-03-05T02:10:20.026Z,74.67
2023-03-05T02:12:47.428Z,74.95
2023-03-05T02:15:14.063Z,74.71
2023-03-05T02:17:40.439Z,75.30
2023-03-05T02:20:06.994Z,75.54
2023-03-05T02:22:33.338Z,75.29
2023-03-05T02:24:59.781Z,75.37
2023-03-05T02:27:26.720Z,75.30
2023-03-05T02:29:54.102Z,74.93
2023-03-05T02:32:20.918Z,74.92
2023-03-05T02:34:47.363Z,75.12
2023-03-05T02:37:13.739Z,74.52
2023-03-05T02:39:40.228Z,74.94
2023-03-05T02:42:07.639Z,75.46
2023-03-05T02:44:34.506Z,75.73
2023-03-05T02:47:00.909Z,75.03
2023-03-05T02:49:30.358Z,75.22
2023-03-05T02:51:56.922Z,75.57
2023-03-05T02:54:24.507Z,75.97
2023-03-05T02:56:50.971Z,75.56
2023-03-05T02:59:17.621Z,75.86
2023-03-05T03:01:44.343Z,75.39
2023-03-05T03:04:10.778Z,75.27
2023-03-05T03:06:37.732Z,74.83
2023-03-05T03:09:04.408Z,74.61
2023-03-05T03:11:31.698Z,74.54
2023-03-05T03:13:58.259Z,74.34
2023-03-05T03:16:24.770Z,74.61
2023-03-05T03:18:52.336Z,74.43
2023-03-05T03:21:20.978Z,74.20
2023-03-05T03:23:48.228Z,74.52
2023-03-05T03:26:15.133Z,74.93
2023-03-05T03:28:43.051Z,75.01
2023-03-05T03:31:09.818Z,75.71
2023-03-05T03:33:36.201Z,76.11
2023-03-05T03:36:02.558Z,76.12
2023-03-05T03:38:28.991Z,75.76
2023-03-05T03:40:55.611Z,75.52
2023-03-05T03:43:21.968Z,75.45
2023-03-05T03:45:48.410Z,75.18
2023-03-05T03:48:14.875Z,74.97
2023-03-05T03:50:41.223Z,75.51
2023-03-05T03:53:08.297Z,75.42
2023-03-05T03:55:34.687Z,75.31
2023-03-05T03:58:03.558Z,75.02
2023-03-05T04:00:30.135Z,75.33
2023-03-05T04:02:57.329Z,74.96
2023-03-05T04:05:23.968Z,74.98
2023-03-05T04:07:50.586Z,74.80
2023-03-05T04:10:16.922Z,74.36
2023-03-05T04:12:43.665Z,74.17
2023-03-05T04:15:10.023Z,74.19
2023-03-05T04:17:36.898Z,74.13
2023-03-05T04:20:03.245Z,74.16
2023-03-05T04:22:30.400Z,74.16
2023-03-05T04:24:56.755Z,74.13
2023-03-05T04:27:23.138Z,74.00
2023-03-05T04:29:49.532Z,73.98
2023-03-05T04:32:16.611Z,73.49
2023-03-05T04:34:43.016Z,73.83
2023-03-05T04:37:09.450Z,73.74
2023-03-05T04:39:36.864Z,73.92
2023-03-05T04:42:03.874Z,73.81
2023-03-05T04:44:30.370Z,73.92
2023-03-05T04:46:56.943Z,74.73
2023-03-05T04:49:23.302Z,74.81
2023-03-05T04:51:49.658Z,74.10
2023-03-05T04:54:17.085Z,74.06
2023-03-05T04:56:44.257Z,74.32
2023-03-05T04:59:12.911Z,74.29
2023-03-05T05:01:40.349Z,74.77
2023-03-05T05:04:06.970Z,74.38
2023-03-05T05:06:33.395Z,74.20
2023-03-05T05:09:00.110Z,74.21
2023-03-05T05:11:26.700Z,74.56
2023-03-05T05:13:53.427Z,74.70
2023-03-05T05:16:19.863Z,75.16
2023-03-05T05:18:46.305Z,75.88
2023-03-05T05:21:12.815Z,76.01
2023-03-05T05:23:40.299Z,76.11
2023-03-05T05:26:06.874Z,76.33
2023-03-05T05:28:36.158Z,76.61
2023-03-05T05:31:08.385Z,76.29
2023-03-05T05:33:34.800Z,76.54
2023-03-05T05:36:01.213Z,76.51
2023-03-05T05:38:27.657Z,76.32
2023-03-05T05:40:54.301Z,76.83
2023-03-05T05:43:20.901Z,76.76
2023-03-05T05:45:47.567Z,77.04
2023-03-05T05:48:18.991Z,76.70
2023-03-05T05:50:45.333Z,76.15
2023-03-05T05:53:11.737Z,76.07
2023-03-05T05:55:38.093Z,75.93
2023-03-05T05:58:04.473Z,76.10
2023-03-05T06:00:30.823Z,76.01
2023-03-05T06:02:57.633Z,75.91
2023-03-05T06:05:24.127Z,75.74
2023-03-05T06:07:51.510Z,75.23
2023-03-05T06:10:18.089Z,75.14
2023-03-05T06:12:44.472Z,75.01
2023-03-05T06:15:10.987Z,74.96
2023-03-05T06:17:37.563Z,74.53
2023-03-05T06:20:03.902Z,74.11
2023-03-05T06:22:30.286Z,74.24
2023-03-05T06:24:56.643Z,74.16
2023-03-05T06:27:23.007Z,74.58
2023-03-05T06:29:49.354Z,75.09
2023-03-05T06:32:15.723Z,74.67
2023-03-05T06:34:42.194Z,74.56
2023-03-05T06:37:10.898Z,74.62
2023-03-05T06:39:37.335Z,74.40
2023-03-05T06:42:03.769Z,74.35
2023-03-05T06:44:32.693Z,74.23
2023-03-05T06:46:59.037Z,74.09
2023-03-05T06:49:25.430Z,73.96
2023-03-05T06:51:51.822Z,73.37
2023-03-05T06:54:21.005Z,72.90
2023-03-05T06:56:47.770Z,73.09
2023-03-05T06:59:14.183Z,73.00
2023-03-05T07:01:41.609Z,73.13
2023-03-05T07:04:07.988Z,73.20
2023-03-05T07:06:34.466Z,73.13
2023-03-05T07:09:00.908Z,72.28
2023-03-05T07:11:27.267Z,72.35
2023-03-05T07:13:53.823Z,72.83
2023-03-05T07:16:20.410Z,73.06
2023-03-05T07:18:46.961Z,73.20
2023-03-05T07:21:14.375Z,72.64
2023-03-05T07:23:40.759Z,72.27
2023-03-05T07:26:07.564Z,72.24
2023-03-05T07:28:33.972Z,72.67
2023-03-05T07:31:00.608Z,71.93
2023-03-05T07:33:27.294Z,71.56
2023-03-05T07:35:53.783Z,70.61
2023-03-05T07:38:20.213Z,70.51
2023-03-05T07:40:46.846Z,71.43
2023-03-05T07:43:13.337Z,71.22
2023-03-05T07:45:40.039Z,71.24
2023-03-05T07:48:07.228Z,71.83
2023-03-05T07:50:33.615Z,71.79
2023-03-05T07:53:01.105Z,71.16
2023-03-05T07:55:27.498Z,71.39
2023-03-05T07:57:55.120Z,71.06
2023-03-05T08:00:21.513Z,72.04
2023-03-05T08:02:48.576Z,72.50
2023-03-05T08:05:14.990Z,72.02
2023-03-05T08:07:44.471Z,72.53
2023-03-05T08:10:11.964Z,72.91
2023-03-05T08:12:38.313Z,73.72
2023-03-05T08:15:04.665Z,73.62
2023-03-05T08:17:31.051Z,72.83
2023-03-05T08:19:57.407Z,72.46
2023-03-05T08:22:27.296Z,72.76
2023-03-05T08:24:53.774Z,72.92
2023-03-05T08:27:20.253Z,72.03
2023-03-05T08:29:46.657Z,72.31
2023-03-05T08:32:13.058Z,72.84
2023-03-05T08:34:39.502Z,72.05
2023-03-05T08:37:05.935Z,72.03
2023-03-05T08:39:32.325Z,72.35
2023-03-05T08:41:58.670Z,73.36
2023-03-05T08:44:25.087Z,72.89
2023-03-05T08:46:51.485Z,72.29
2023-03-05T08:49:20.331Z,71.38
2023-03-05T08:51:46.889Z,70.81
2023-03-05T08:54:13.337Z,70.39
2023-03-05T08:56:39.725Z,70.59
2023-03-05T08:59:06.232Z,70.00
2023-03-05T09:01:32.687Z,69.51
2023-03-05T09:03:59.264Z,69.77
2023-03-05T09:06:25.631Z,68.74
2023-03-05T09:08:51.985Z,67.87
2023-03-05T09:11:18.558Z,68.11
2023-03-05T09:13:45.429Z,69.33
2023-03-05T09:16:11.884Z,69.09
2023-03-05T09:18:38.314Z,68.42
2023-03-05T09:21:04.750Z,68.69
2023-03-05T09:23:31.200Z,66.58
2023-03-05T09:25:57.986Z,66.73
2023-03-05T09:28:24.388Z,66.52
2023-03-05T09:30:50.897Z,68.60
2023-03-05T09:33:17.513Z,68.06
2023-03-05T09:35:43.906Z,68.24
2023-03-05T09:38:10.490Z,66.47
2023-03-05T09:40:36.907Z,66.90
2023-03-05T09:43:03.259Z,66.26
2023-03-05T09:45:29.640Z,66.14
2023-03-05T09:47:56.069Z,65.11
2023-03-05T09:50:22.509Z,64.36
2023-03-05T09:52:48.894Z,65.36
2023-03-05T09:55:17.596Z,63.82
2023-03-05T09:57:45.786Z,62.10
2023-03-05T10:00:12.554Z,62.86
2023-03-05T10:02:39.161Z,62.27
2023-03-05T10:05:05.633Z,62.72
2023-03-05T10:07:33.041Z,62.94
2023-03-05T10:09:59.436Z,62.61
2023-03-05T10:12:25.826Z,61.13
2023-03-05T10:14:52.237Z,60.20
2023-03-05T10:17:19.661Z,59.58
2023-03-05T10:19:46.110Z,59.28
2023-03-05T10:22:12.826Z,58.37
2023-03-05T10:24:39.210Z,59.19
2023-03-05T10:27:05.671Z,57.18
2023-03-05T10:29:34.955Z,58.11
2023-03-05T10:32:02.543Z,57.91
2023-03-05T10:34:29.103Z,57.57
2023-03-05T10:36:57.877Z,56.87
2023-03-05T10:39:24.691Z,56.27
2023-03-05T10:41:51.252Z,56.75
2023-03-05T10:44:17.646Z,57.19
2023-03-05T10:46:44.023Z,56.17
2023-03-05T10:49:10.528Z,56.06
2023-03-05T10:51:37.018Z,57.48
2023-03-05T10:54:06.704Z,57.12
2023-03-05T10:56:33.064Z,58.05
2023-03-05T10:59:01.724Z,56.37
2023-03-05T11:01:28.302Z,56.05
2023-03-05T11:03:54.726Z,56.59
2023-03-05T11:06:21.212Z,56.25
2023-03-05T11:08:47.613Z,56.49
2023-03-05T11:11:14.087Z,55.17
2023-03-05T11:13:40.474Z,55.85
2023-03-05T11:16:06.921Z,55.02
2023-03-05T11:18:33.571Z,55.96
2023-03-05T11:21:00.121Z,55.94
2023-03-05T11:23:27.748Z,54.93
2023-03-05T11:25:57.293Z,54.83
2023-03-05T11:28:32.280Z,55.49
2023-03-05T11:30:59.741Z,53.77
2023-03-05T11:33:26.161Z,55.74
2023-03-05T11:35:54.674Z,55.40
2023-03-05T11:38:21.044Z,56.12
2023-03-05T11:40:47.499Z,54.69
2023-03-05T11:43:13.896Z,55.06
2023-03-05T11:45:40.275Z,54.73
2023-03-05T11:48:06.660Z,54.17
2023-03-05T11:50:33.244Z,54.99
2023-03-05T11:52:59.712Z,55.37
2023-03-05T11:55:28.245Z,54.27
2023-03-05T11:57:54.651Z,53.38
2023-03-05T12:00:21.890Z,53.74
2023-03-05T12:02:56.492Z,54.89
2023-03-05T12:05:22.865Z,54.22
2023-03-05T12:07:49.515Z,53.01
2023-03-05T12:10:16.042Z,53.94
2023-03-05T12:12:42.695Z,54.44
2023-03-05T12:15:09.102Z,54.67
2023-03-05T12:17:35.450Z,54.91
2023-03-05T12:20:01.825Z,54.80
2023-03-05T12:22:28.227Z,54.11
2023-03-05T12:24:54.604Z,53.43
2023-03-05T12:27:21.160Z,53.28
2023-03-05T12:29:47.567Z,54.42
2023-03-05T12:32:13.968Z,54.58
2023-03-05T12:34:40.648Z,55.27
2023-03-05T12:37:07.138Z,55.54
2023-03-05T12:39:33.602Z,55.13
2023-03-05T12:42:00.206Z,56.31
2023-03-05T12:44:28.781Z,56.66
2023-03-05T12:46:57.499Z,57.11
2023-03-05T12:49:24.277Z,55.46
2023-03-05T12:51:51.122Z,56.30
2023-03-05T12:54:19.132Z,55.89
2023-03-05T12:56:45.555Z,55.54
2023-03-05T12:59:12.044Z,53.68
2023-03-05T13:01:38.712Z,53.65
2023-03-05T13:04:05.396Z,54.03
2023-03-05T13:06:32.391Z,54.14
2023-03-05T13:09:00.482Z,54.16
2023-03-05T13:11:26.939Z,52.76
2023-03-05T13:13:53.551Z,53.03
2023-03-05T13:16:19.972Z,52.84
2023-03-05T13:18:46.382Z,52.77
2023-03-05T13:21:12.769Z,53.38
2023-03-05T13:23:39.175Z,52.79
2023-03-05T13:26:05.567Z,52.91
2023-03-05T13:28:32.035Z,53.95
2023-03-05T13:30:58.754Z,52.77
2023-03-05T13:33:25.136Z,53.04
2023-03-05T13:35:53.652Z,51.77
2023-03-05T13:38:20.503Z,52.21
2023-03-05T13:40:47.079Z,52.50
2023-03-05T13:43:13.717Z,53.02
2023-03-05T13:45:40.348Z,52.55
2023-03-05T13:48:06.884Z,52.81
2023-03-05T13:50:33.574Z,52.09
2023-03-05T13:52:59.969Z,51.86
2023-03-05T13:55:26.373Z,51.82
2023-03-05T13:57:53.228Z,52.20
2023-03-05T14:00:20.577Z,50.99
2023-03-05T14:02:47.616Z,52.46
2023-03-05T14:05:14.686Z,50.20
2023-03-05T14:07:41.093Z,50.51
2023-03-05T14:10:08.768Z,50.24
2023-03-05T14:12:35.407Z,49.54
2023-03-05T14:15:02.281Z,49.25
2023-03-05T14:17:28.697Z,48.89
2023-03-05T14:19:55.266Z,49.04
2023-03-05T14:22:22.971Z,48.30
2023-03-05T14:24:49.457Z,49.21
2023-03-05T14:27:16.329Z,47.88
2023-03-05T14:29:43.217Z,46.08
2023-03-05T14:32:09.956Z,46.44
2023-03-05T14:34:36.635Z,44.58
2023-03-05T14:37:03.054Z,47.34
2023-03-05T14:39:29.579Z,47.07
2023-03-05T14:41:56.089Z,46.27
2023-03-05T14:44:22.472Z,46.93
2023-03-05T14:46:48.834Z,47.00
2023-03-05T14:49:17.762Z,47.30
2023-03-05T14:51:44.557Z,47.36
2023-03-05T14:54:10.903Z,48.11
2023-03-05T14:56:37.510Z,47.39
2023-03-05T14:59:04.134Z,47.38
2023-03-05T15:01:30.642Z,47.72
2023-03-05T15:03:57.366Z,46.91
2023-03-05T15:06:26.074Z,46.59
2023-03-05T15:08:53.092Z,45.92
2023-03-05T15:11:19.531Z,46.40
2023-03-05T15:13:46.114Z,44.29
2023-03-05T15:16:12.508Z,43.73
2023-03-05T15:18:41.205Z,45.09
2023-03-05T15:21:07.601Z,45.66
2023-03-05T15:23:33.964Z,46.68
2023-03-05T15:26:00.556Z,46.04
2023-03-05T15:28:26.926Z,45.12
2023-03-05T15:30:53.312Z,46.26
2023-03-05T15:33:20.065Z,45.97
2023-03-05T15:35:46.491Z,45.82
2023-03-05T15:38:12.916Z,46.43
2023-03-05T15:40:39.295Z,46.00
2023-03-05T15:43:06.674Z,46.42
2023-03-05T15:45:33.116Z,46.74
2023-03-05T15:47:59.587Z,46.34
2023-03-05T15:50:26.042Z,46.24
2023-03-05T15:52:52.467Z,46.59
2023-03-05T15:55:18.871Z,45.85
2023-03-05T15:57:45.257Z,49.92
2023-03-05T16:00:11.642Z,48.77
2023-03-05T16:02:38.037Z,46.57
2023-03-05T16:05:04.420Z,46.47
2023-03-05T16:07:32.796Z,47.06
2023-03-05T16:09:59.271Z,48.46
2023-03-05T16:15:00.918Z,47.25
2023-03-05T16:17:27.301Z,47.67
2023-03-05T16:19:53.813Z,48.05
2023-03-05T16:22:20.198Z,47.58
2023-03-05T16:24:46.642Z,48.25
2023-03-05T16:27:13.054Z,47.26
2023-03-05T16:29:39.609Z,48.67
2023-03-05T17:10:23.772Z,52.08
2023-03-05T17:21:02.975Z,54.18
2023-03-05T17:26:18.232Z,55.42
2023-03-05T17:28:47.752Z,55.79
2023-03-05T17:39:43.946Z,57.15
2023-03-05T17:42:12.784Z,57.39
2023-03-05T17:47:22.804Z,57.84
2023-03-05T18:11:24.240Z,60.02
2023-03-05T18:13:52.298Z,60.19
2023-03-05T18:16:24.527Z,60.80
2023-03-05T18:18:52.189Z,60.70
2023-03-05T18:27:10.741Z,61.66
2023-03-05T18:32:21.634Z,61.88
2023-03-05T18:37:44.317Z,62.59
2023-03-05T18:40:11.143Z,61.89
2023-03-05T18:42:37.496Z,61.86
2023-03-05T18:45:04.182Z,62.44
2023-03-05T18:47:30.558Z,62.17
2023-03-05T18:49:56.954Z,62.53
2023-03-05T18:52:23.361Z,63.08
2023-03-05T18:54:50.051Z,63.00
2023-03-05T18:57:16.468Z,63.29
2023-03-05T18:59:42.838Z,63.36
2023-03-05T19:02:09.216Z,63.74
2023-03-05T19:04:35.638Z,63.39
2023-03-05T19:07:04.357Z,63.79
2023-03-05T19:09:31.125Z,63.56
2023-03-05T19:11:57.476Z,64.80
2023-03-05T19:14:23.811Z,64.91
2023-03-05T19:16:50.462Z,64.83
2023-03-05T19:19:17.046Z,65.24
2023-03-05T19:21:43.775Z,64.95
2023-03-05T19:24:10.609Z,64.84
2023-03-05T19:26:37.697Z,64.69
2023-03-05T19:29:06.953Z,65.10
2023-03-05T19:31:36.222Z,65.69
2023-03-05T19:34:02.819Z,65.52
2023-03-05T19:52:48.798Z,65.89
2023-03-05T20:00:50.235Z,66.91
2023-03-05T20:01:12.609Z,67.30
2023-03-05T20:03:17.650Z,66.69
2023-03-05T20:05:56.882Z,67.58
2023-03-05T20:11:03.798Z,67.71
2023-03-05T20:13:30.932Z,67.78
2023-03-05T20:15:59.024Z,67.86
2023-03-05T20:18:35.405Z,68.37
2023-03-05T22:35:57.762Z,73.48
2023-03-05T22:38:25.682Z,73.27
2023-03-05T22:40:52.393Z,73.07
2023-03-05T22:43:18.922Z,72.37
2023-03-05T22:45:46.465Z,71.95
2023-03-05T22:48:13.680Z,72.27
2023-03-05T22:50:42.565Z,72.48
2023-03-05T22:53:09.103Z,73.20
2023-03-05T22:55:35.937Z,73.30
2023-03-05T22:58:05.149Z,73.36
2023-03-05T23:00:31.811Z,73.74
2023-03-05T23:02:59.986Z,74.53
2023-03-05T23:05:30.369Z,74.00
2023-03-05T23:07:59.599Z,73.71
2023-03-05T23:10:27.257Z,72.80
2023-03-05T23:12:55.758Z,72.76
2023-03-05T23:15:22.233Z,73.27
2023-03-05T23:17:48.677Z,73.98
2023-03-05T23:20:15.090Z,73.54
2023-03-05T23:22:43.771Z,73.80
2023-03-05T23:25:10.231Z,73.52
2023-03-05T23:27:38.086Z,73.78
2023-03-05T23:30:04.524Z,73.92
2023-03-05T23:32:31.955Z,73.21
2023-03-05T23:34:58.645Z,73.24
2023-03-05T23:37:25.398Z,73.43
2023-03-05T23:39:52.969Z,73.99
2023-03-05T23:42:19.984Z,73.82
2023-03-05T23:44:46.430Z,73.97
2023-03-05T23:47:13.112Z,73.39
2023-03-05T23:49:42.474Z,72.93
2023-03-05T23:52:09.258Z,73.61
2023-03-05T23:54:36.116Z,73.88
2023-03-05T23:57:07.335Z,74.10
2023-03-05T23:59:33.836Z,74.14
